Time;durP1;ratioP1;P1;durP2;ratioP2;P2;SDS_P1;SDS_P2;PMS_P1;PMS_P2;Temp;Humidity;BMP_temperature;BMP_pressure;BME280_temperature;BME280_humidity;BME280_pressure;Samples;Min_cycle;Max_cycle;Signal;HPM_P1;HPM_P2
2024/03/04 00:01:15;;;;;;;;;0.00;0.00;;;;;-145.09;100.00;59365.97;6292442;22;37219;-91
2024/03/04 00:03:59;;;;;;;;;;;;;;;;;;;;;
2024/03/04 00:06:39;;;;;;;;;;;;;;;;;;;;;
2024/03/04 00:09:11;;;;;;;;;0.00;0.00;;;;;-145.09;100.00;59365.97;6319142;22;35761;-90
2024/03/04 00:12:15;;;;;;;;;;;;;;;;;;;;;
2024/03/04 00:14:51;;;;;;;;;0.00;0.00;;;;;-145.09;100.00;59365.97;6317653;22;35613;-90
2024/03/04 00:17:25;;;;;;;;;0.00;0.00;;;;;-145.09;100.00;59365.97;6319864;22;8825;-91
2024/03/04 00:20:04;;;;;;;;;;;;;;;;;;;;;
2024/03/04 00:22:37;;;;;;;;;0.00;0.00;;;;;-145.09;100.00;59365.97;6318993;22;35336;-91
2024/03/04 00:25:24;;;;;;;;;;;;;;;;;;;;;
2024/03/04 00:27:54;;;;;;;;;0.00;0.00;;;;;-145.09;100.00;59365.97;6319337;22;36965;-90
2024/03/04 00:30:31;;;;;;;;;0.00;0.00;;;;;-145.09;100.00;59365.97;6319820;22;8774;-89
2024/03/04 00:33:09;;;;;;;;;;;;;;;;;;;;;
2024/03/04 00:35:58;;;;;;;;;0.00;0.00;;;;;-145.09;100.00;59365.97;6313936;22;36512;-89
2024/03/04 00:38:33;;;;;;;;;0.00;0.00;;;;;-145.09;100.00;59365.97;6319228;22;8747;-91
2024/03/04 00:41:12;;;;;;;;;0.00;0.00;;;;;-145.09;100.00;59365.97;6319236;22;8846;-91
2024/03/04 00:43:59;;;;;;;;;0.00;0.00;;;;;-145.09;100.00;59365.97;6321008;22;8728;-90
2024/03/04 00:46:34;;;;;;;;;;;;;;;;;;;;;
2024/03/04 00:49:27;;;;;;;;;;;;;;;;;;;;;
2024/03/04 00:52:03;;;;;;;;;0.00;0.00;;;;;-145.09;100.00;59365.97;6318980;22;36258;-91
2024/03/04 00:54:43;;;;;;;;;0.00;0.00;;;;;-145.09;100.00;59365.97;6293770;22;8762;-90
2024/03/04 00:57:29;;;;;;;;;;;;;;;;;;;;;
2024/03/04 00:59:55;;;;;;;;;0.00;0.00;;;;;-145.09;100.00;59365.97;6320438;22;36173;-91
2024/03/04 01:02:34;;;;;;;;;;;;;;;;;;;;;
2024/03/04 01:05:29;;;;;;;;;;;;;;;;;;;;;
2024/03/04 01:08:16;;;;;;;;;;;;;;;;;;;;;
2024/03/04 01:10:54;;;;;;;;;0.00;0.00;;;;;-145.09;100.00;59365.97;6314227;22;36005;-90
2024/03/04 01:13:36;;;;;;;;;;;;;;;;;;;;;
2024/03/04 01:16:21;;;;;;;;;0.00;0.00;;;;;-145.09;100.00;59365.97;6320150;22;36893;-90
2024/03/04 01:19:00;;;;;;;;;0.00;0.00;;;;;-145.09;100.00;59365.97;6294494;22;8748;-91
2024/03/04 01:21:33;;;;;;;;;0.00;0.00;;;;;-145.09;100.00;59365.97;6319359;22;8772;-91
2024/03/04 01:24:09;;;;;;;;;0.00;0.00;;;;;-145.09;100.00;59365.97;6294984;22;8778;-90
2024/03/04 01:26:59;;;;;;;;;0.00;0.00;;;;;-145.09;100.00;59365.97;6294549;22;8826;-91
2024/03/04 01:29:25;;;;;;;;;0.00;0.00;;;;;-145.09;100.00;59365.97;6320586;22;8713;-91
2024/03/04 01:32:03;;;;;;;;;;;;;;;;;;;;;
2024/03/04 01:34:49;;;;;;;;;0.00;0.00;;;;;-145.09;100.00;59365.97;6316064;22;37900;-92
2024/03/04 01:37:32;;;;;;;;;;;;;;;;;;;;;
2024/03/04 01:40:12;;;;;;;;;;;;;;;;;;;;;
2024/03/04 01:43:07;;;;;;;;;;;;;;;;;;;;;
2024/03/04 01:45:38;;;;;;;;;0.00;0.00;;;;;-145.09;100.00;59365.97;6292174;22;36773;-90
2024/03/04 01:48:14;;;;;;;;;;;;;;;;;;;;;
2024/03/04 01:51:12;;;;;;;;;;;;;;;;;;;;;
2024/03/04 01:53:48;;;;;;;;;;;;;;;;;;;;;
2024/03/04 01:56:24;;;;;;;;;0.00;0.00;;;;;-145.09;100.00;59365.97;6320068;22;36475;-91
2024/03/04 01:59:02;;;;;;;;;0.00;0.00;;;;;-145.09;100.00;59365.97;6293579;22;8747;-91
2024/03/04 02:01:37;;;;;;;;;0.00;0.00;;;;;-145.09;100.00;59365.97;6293873;22;8819;-91
2024/03/04 02:04:08;;;;;;;;;0.00;0.00;;;;;-145.09;100.00;59365.97;6295113;22;8689;-91
2024/03/04 02:06:51;;;;;;;;;;;;;;;;;;;;;
2024/03/04 02:12:11;;;;;;;;;0.00;0.00;;;;;-145.09;100.00;59365.97;6276254;22;8808;-91
2024/03/04 02:14:46;;;;;;;;;;;;;;;;;;;;;
2024/03/04 02:17:17;;;;;;;;;0.00;0.00;;;;;-145.09;100.00;59365.97;6294817;22;36250;-91
2024/03/04 02:19:42;;;;;;;;;0.00;0.00;;;;;-145.09;100.00;59365.97;6293710;22;8749;-90
2024/03/04 02:22:21;;;;;;;;;0.00;0.00;;;;;-145.09;100.00;59365.97;6292645;22;9727;-91
2024/03/04 02:24:59;;;;;;;;;;;;;;;;;;;;;
2024/03/04 02:27:27;;;;;;;;;0.00;0.00;;;;;-145.09;100.00;59365.97;6289501;22;37306;-91
2024/03/04 02:30:04;;;;;;;;;0.00;0.00;;;;;-145.09;100.00;59365.97;6293275;22;8708;-91
2024/03/04 02:32:32;;;;;;;;;0.00;0.00;;;;;-145.09;100.00;59365.97;6294331;22;8760;-91
2024/03/04 02:35:07;;;;;;;;;0.00;0.00;;;;;-145.09;100.00;59365.97;6320335;22;8749;-90
2024/03/04 02:37:48;;;;;;;;;;;;;;;;;;;;;
2024/03/04 02:40:38;;;;;;;;;0.00;0.00;;;;;-145.09;100.00;59365.97;6292806;22;36527;-91
2024/03/04 02:43:28;;;;;;;;;0.00;0.00;;;;;-145.09;100.00;59365.97;6320529;22;8780;-91
2024/03/04 02:46:04;;;;;;;;;0.00;0.00;;;;;-145.09;100.00;59365.97;6268657;22;8851;-90
2024/03/04 02:48:52;;;;;;;;;0.00;0.00;;;;;-145.09;100.00;59365.97;6295314;22;8819;-91
2024/03/04 02:51:22;;;;;;;;;0.00;0.00;;;;;-145.09;100.00;59365.97;6324946;22;8721;-90
2024/03/04 02:54:05;;;;;;;;;;;;;;;;;;;;;
2024/03/04 02:56:43;;;;;;;;;0.00;0.00;;;;;-145.09;100.00;59365.97;6306860;22;37150;-90
2024/03/04 02:59:08;;;;;;;;;0.00;0.00;;;;;-145.09;100.00;59365.97;6332600;22;8705;-91
2024/03/04 03:01:47;;;;;;;;;0.00;0.00;;;;;-145.09;100.00;59365.97;6299918;22;8784;-91
2024/03/04 03:04:14;;;;;;;;;0.00;0.00;;;;;-145.09;100.00;59365.97;6296143;22;8843;-91
2024/03/04 03:06:47;;;;;;;;;0.00;0.00;;;;;-145.09;100.00;59365.97;6318540;22;8743;-91
2024/03/04 03:09:24;;;;;;;;;;;;;;;;;;;;;
2024/03/04 03:12:05;;;;;;;;;;;;;;;;;;;;;
2024/03/04 03:14:44;;;;;;;;;;;;;;;;;;;;;
2024/03/04 03:17:15;;;;;;;;;0.00;0.00;;;;;-145.09;100.00;59365.97;6319928;22;36913;-91
2024/03/04 03:19:41;;;;;;;;;0.00;0.00;;;;;-145.09;100.00;59365.97;6293061;22;8701;-91
2024/03/04 03:22:16;;;;;;;;;0.00;0.00;;;;;-145.09;100.00;59365.97;6292988;22;8772;-91
2024/03/04 03:24:44;;;;;;;;;0.00;0.00;;;;;-145.09;100.00;59365.97;6320166;22;8846;-91
2024/03/04 03:27:28;;;;;;;;;;;;;;;;;;;;;
2024/03/04 03:30:07;;;;;;;;;;;;;;;;;;;;;
2024/03/04 03:32:37;;;;;;;;;0.00;0.00;;;;;-145.09;100.00;59365.97;6295401;22;8784;-91
2024/03/04 03:35:06;;;;;;;;;0.50;0.50;;;;;-145.09;100.00;59365.97;6292357;22;8749;-91
2024/03/04 03:37:36;;;;;;;;;2.00;2.00;;;;;-145.09;100.00;59365.97;6319537;22;8752;-92
2024/03/04 03:40:06;;;;;;;;;0.00;0.00;;;;;-145.09;100.00;59365.97;6293421;22;8745;-92
2024/03/04 03:42:37;;;;;;;;;0.00;0.00;;;;;-145.09;100.00;59365.97;6320312;22;8787;-91
2024/03/04 03:45:07;;;;;;;;;0.00;0.00;;;;;-145.09;100.00;59365.97;6320370;22;8826;-91
2024/03/04 03:47:35;;;;;;;;;0.00;0.00;;;;;-145.09;100.00;59365.97;6320080;22;8779;-90
2024/03/04 03:50:03;;;;;;;;;0.00;0.00;;;;;-145.09;100.00;59365.97;6292660;22;8761;-90
2024/03/04 03:52:34;;;;;;;;;0.00;0.00;;;;;-145.09;100.00;59365.97;6292848;22;8836;-90
2024/03/04 03:55:00;;;;;;;;;0.00;0.00;;;;;-145.09;100.00;59365.97;6293613;22;8822;-90
2024/03/04 03:57:25;;;;;;;;;0.00;0.00;;;;;-145.09;100.00;59365.97;6292605;22;8765;-89
2024/03/04 03:59:53;;;;;;;;;0.00;0.00;;;;;-145.09;100.00;59365.97;6292056;22;8781;-91
2024/03/04 04:02:31;;;;;;;;;;;;;;;;;;;;;
2024/03/04 04:04:57;;;;;;;;;0.00;0.00;;;;;-145.09;100.00;59365.97;6319545;22;35831;-91
2024/03/04 04:07:23;;;;;;;;;0.00;0.00;;;;;-145.09;100.00;59365.97;6292722;22;8843;-90
2024/03/04 04:09:50;;;;;;;;;0.00;0.00;;;;;-145.09;100.00;59365.97;6319424;22;8761;-91
2024/03/04 04:12:16;;;;;;;;;0.00;0.00;;;;;-145.09;100.00;59365.97;6292335;22;8765;-90
2024/03/04 04:14:41;;;;;;;;;0.00;0.00;;;;;-145.09;100.00;59365.97;6292635;22;8779;-91
2024/03/04 04:17:08;;;;;;;;;0.00;0.00;;;;;-145.09;100.00;59365.97;6292266;22;8859;-91
2024/03/04 04:19:40;;;;;;;;;0.00;0.00;;;;;-145.09;100.00;59365.97;6293337;22;8768;-90
2024/03/04 04:22:05;;;;;;;;;0.00;0.00;;;;;-145.09;100.00;59365.97;6292429;22;8759;-91
2024/03/04 04:24:41;;;;;;;;;;;;;;;;;;;;;
2024/03/04 04:27:06;;;;;;;;;0.00;0.00;;;;;-145.09;100.00;59365.97;6293916;22;36182;-90
2024/03/04 04:29:44;;;;;;;;;;;;;;;;;;;;;
2024/03/04 04:32:23;;;;;;;;;;;;;;;;;;;;;
2024/03/04 04:34:51;;;;;;;;;0.00;0.00;;;;;-145.09;100.00;59365.97;6291314;22;36398;-92
2024/03/04 04:37:24;;;;;;;;;0.00;0.00;;;;;-145.09;100.00;59365.97;6319951;22;8834;-91
2024/03/04 04:39:57;;;;;;;;;0.00;0.00;;;;;-145.09;100.00;59365.97;6294434;22;8748;-90
2024/03/04 04:42:23;;;;;;;;;0.00;0.00;;;;;-145.09;100.00;59365.97;6292557;22;8732;-90
2024/03/04 04:44:51;;;;;;;;;3.50;3.50;;;;;-145.09;100.00;59365.97;6291891;22;8780;-90
2024/03/04 04:47:26;;;;;;;;;0.00;0.00;;;;;-145.09;100.00;59365.97;6292206;22;8703;-92
2024/03/04 04:50:11;;;;;;;;;0.00;0.00;;;;;-145.09;100.00;59365.97;6292066;22;8764;-92
2024/03/04 04:52:39;;;;;;;;;0.00;0.00;;;;;-145.09;100.00;59365.97;6292759;22;8771;-91
2024/03/04 04:55:12;;;;;;;;;0.00;0.00;;;;;-145.09;100.00;59365.97;6292040;22;8817;-92
2024/03/04 04:57:40;;;;;;;;;0.00;0.00;;;;;-145.09;100.00;59365.97;6292078;22;8785;-92
2024/03/04 05:00:09;;;;;;;;;0.00;0.00;;;;;-145.09;100.00;59365.97;6291533;22;8776;-91
2024/03/04 05:02:49;;;;;;;;;0.00;0.00;;;;;-145.09;100.00;59365.97;6318710;22;8815;-92
2024/03/04 05:05:17;;;;;;;;;1.00;1.00;;;;;-145.09;100.00;59365.97;6318478;22;8741;-91
2024/03/04 05:08:05;;;;;;;;;0.00;0.00;;;;;-145.09;100.00;59365.97;6319195;22;8749;-92
2024/03/04 05:10:43;;;;;;;;;;;;;;;;;;;;;
2024/03/04 05:13:13;;;;;;;;;0.00;0.00;;;;;-145.09;100.00;59365.97;6295607;22;35486;-91
2024/03/04 05:15:52;;;;;;;;;;;;;;;;;;;;;
2024/03/04 05:18:28;;;;;;;;;;;;;;;;;;;;;
2024/03/04 05:20:56;;;;;;;;;0.00;0.00;;;;;-145.09;100.00;59365.97;6316803;22;37446;-91
2024/03/04 05:23:24;;;;;;;;;0.00;0.00;;;;;-145.09;100.00;59365.97;6294199;22;8745;-91
2024/03/04 05:25:58;;;;;;;;;0.00;0.00;;;;;-145.09;100.00;59365.97;6268244;22;8879;-91
2024/03/04 05:28:26;;;;;;;;;0.00;0.00;;;;;-145.09;100.00;59365.97;6320994;22;8750;-91
2024/03/04 05:31:04;;;;;;;;;;;;;;;;;;;;;
2024/03/04 05:33:42;;;;;;;;;;;;;;;;;;;;;
2024/03/04 05:36:34;;;;;;;;;;;;;;;;;;;;;
2024/03/04 05:39:00;;;;;;;;;0.00;0.00;;;;;-145.09;100.00;59365.97;6314636;22;37150;-92
2024/03/04 05:41:30;;;;;;;;;5.50;4.50;;;;;-145.09;100.00;59365.97;6320675;22;8783;-90
2024/03/04 05:44:05;;;;;;;;;;;;;;;;;;;;;
2024/03/04 05:46:33;;;;;;;;;0.00;0.00;;;;;-145.09;100.00;59365.97;6295067;22;35605;-91
2024/03/04 05:49:06;;;;;;;;;0.00;0.00;;;;;-145.09;100.00;59365.97;6293915;22;8744;-90
2024/03/04 05:51:34;;;;;;;;;0.00;0.00;;;;;-145.09;100.00;59365.97;6294715;22;8783;-92
2024/03/04 05:54:12;;;;;;;;;0.00;0.00;;;;;-145.09;100.00;59365.97;6293857;22;8841;-90
2024/03/04 05:56:46;;;;;;;;;0.00;0.00;;;;;-145.09;100.00;59365.97;6320909;22;8760;-90
2024/03/04 05:59:12;;;;;;;;;0.00;0.00;;;;;-145.09;100.00;59365.97;6319074;22;10030;-91
2024/03/04 06:01:47;;;;;;;;;0.00;0.00;;;;;-145.09;100.00;59365.97;6320446;22;8760;-92
2024/03/04 06:04:17;;;;;;;;;0.00;0.00;;;;;-145.09;100.00;59365.97;6293567;22;8737;-91
2024/03/04 06:06:48;;;;;;;;;0.00;0.00;;;;;-145.09;100.00;59365.97;6293537;22;8842;-90
2024/03/04 06:09:15;;;;;;;;;0.00;0.00;;;;;-145.09;100.00;59365.97;6293259;22;8723;-90
2024/03/04 06:12:08;;;;;;;;;0.00;0.00;;;;;-145.09;100.00;59365.97;6292723;22;8878;-89
2024/03/04 06:14:39;;;;;;;;;0.00;0.00;;;;;-145.09;100.00;59365.97;6293155;22;8859;-90
2024/03/04 06:17:05;;;;;;;;;0.00;0.00;;;;;-145.09;100.00;59365.97;6292627;22;8745;-89
2024/03/04 06:19:33;;;;;;;;;0.00;0.00;;;;;-145.09;100.00;59365.97;6320593;22;8776;-95
2024/03/04 06:22:02;;;;;;;;;0.00;0.00;;;;;-145.09;100.00;59365.97;6292640;22;8757;-95
2024/03/04 06:24:34;;;;;;;;;0.00;0.00;;;;;-145.09;100.00;59365.97;6320661;22;8726;-93
2024/03/04 06:27:02;;;;;;;;;0.00;0.00;;;;;-145.09;100.00;59365.97;6295839;22;8835;-93
2024/03/04 06:29:33;;;;;;;;;0.00;0.00;;;;;-145.09;100.00;59365.97;6327737;22;8700;-91
2024/03/04 06:32:03;;;;;;;;;0.00;0.00;;;;;-145.09;100.00;59365.97;6294875;22;8787;-94
2024/03/04 06:34:30;;;;;;;;;0.00;0.00;;;;;-145.09;100.00;59365.97;6320293;22;8737;-86
2024/03/04 06:36:55;;;;;;;;;0.00;0.00;;;;;-145.09;100.00;59365.97;6292737;22;8764;-91
2024/03/04 06:39:21;;;;;;;;;0.00;0.00;;;;;-145.09;100.00;59365.97;6293173;22;8814;-91
2024/03/04 06:41:50;;;;;;;;;0.00;0.00;;;;;-145.09;100.00;59365.97;6320168;22;8769;-95
2024/03/04 06:44:16;;;;;;;;;0.00;0.00;;;;;-145.09;100.00;59365.97;6293470;22;8749;-89
2024/03/04 06:46:42;;;;;;;;;0.00;0.00;;;;;-145.09;100.00;59365.97;6293505;22;8772;-93
2024/03/04 06:49:07;;;;;;;;;0.00;0.00;;;;;-145.09;100.00;59365.97;6294046;22;8753;-93
2024/03/04 06:51:35;;;;;;;;;0.00;0.00;;;;;-145.09;100.00;59365.97;6292954;22;26914;-92
2024/03/04 06:54:08;;;;;;;;;0.00;0.00;;;;;-145.09;100.00;59365.97;6293474;22;10812;-91
2024/03/04 06:56:36;;;;;;;;;0.00;0.00;;;;;-145.09;100.00;59365.97;6291647;22;8838;-91
2024/03/04 06:59:02;;;;;;;;;0.00;0.00;;;;;-145.09;100.00;59365.97;6292615;22;8811;-89
2024/03/04 07:01:27;;;;;;;;;0.00;0.00;;;;;-145.09;100.00;59365.97;6292271;22;8756;-89
2024/03/04 07:03:54;;;;;;;;;0.00;0.00;;;;;-145.09;100.00;59365.97;6291463;22;8824;-91
2024/03/04 07:06:20;;;;;;;;;0.00;0.00;;;;;-145.09;100.00;59365.97;6319371;22;8863;-93
2024/03/04 07:08:45;;;;;;;;;0.00;0.00;;;;;-145.09;100.00;59365.97;6318118;22;8818;-88
2024/03/04 07:11:15;;;;;;;;;0.00;0.00;;;;;-145.09;100.00;59365.97;6290376;22;18008;-91
2024/03/04 07:13:41;;;;;;;;;0.00;0.00;;;;;-145.09;100.00;59365.97;6320099;22;10769;-96
2024/03/04 07:16:07;;;;;;;;;0.00;0.00;;;;;-145.09;100.00;59365.97;6293405;22;9612;-89
2024/03/04 07:18:33;;;;;;;;;0.00;0.00;;;;;-145.09;100.00;59365.97;6319440;22;8779;-88
2024/03/04 07:20:59;;;;;;;;;0.00;0.00;;;;;-145.09;100.00;59365.97;6320427;22;8871;-88
2024/03/04 07:23:25;;;;;;;;;0.00;0.00;;;;;-145.09;100.00;59365.97;6319582;22;8745;-88
2024/03/04 07:25:50;;;;;;;;;0.00;0.00;;;;;-145.09;100.00;59365.97;6318922;22;9502;-89
2024/03/04 07:28:16;;;;;;;;;0.00;0.00;;;;;-145.09;100.00;59365.97;6292571;22;8752;-89
2024/03/04 07:30:41;;;;;;;;;0.00;0.00;;;;;-145.09;100.00;59365.97;6291662;22;8863;-88
2024/03/04 07:33:09;;;;;;;;;0.00;0.00;;;;;-145.09;100.00;59365.97;6291432;22;8783;-88
2024/03/04 07:35:35;;;;;;;;;0.00;0.00;;;;;-145.09;100.00;59365.97;6319054;22;8810;-88
2024/03/04 07:38:00;;;;;;;;;0.00;0.00;;;;;-145.09;100.00;59365.97;6319584;22;8761;-88
2024/03/04 07:40:25;;;;;;;;;0.00;0.00;;;;;-145.09;100.00;59365.97;6290979;22;28000;-89
2024/03/04 07:42:51;;;;;;;;;0.00;0.00;;;;;-145.09;100.00;59365.97;6289955;22;24566;-88
2024/03/04 07:45:16;;;;;;;;;0.00;0.00;;;;;-145.09;100.00;59365.97;6291584;22;33599;-88
2024/03/04 07:47:41;;;;;;;;;0.00;0.00;;;;;-145.09;100.00;59365.97;6318294;22;26063;-89
2024/03/04 07:50:07;;;;;;;;;0.00;0.00;;;;;-145.09;100.00;59365.97;6292120;22;11437;-88
2024/03/04 07:52:32;;;;;;;;;0.00;0.00;;;;;-145.09;100.00;59365.97;6319666;22;8748;-89
2024/03/04 07:54:57;;;;;;;;;0.00;0.00;;;;;-145.09;100.00;59365.97;6319195;22;8752;-88
2024/03/04 07:57:23;;;;;;;;;0.00;0.00;;;;;-145.09;100.00;59365.97;6291200;22;37739;-88
2024/03/04 07:59:48;;;;;;;;;0.00;0.00;;;;;-145.09;100.00;59365.97;6289879;22;31891;-88
2024/03/04 08:02:13;;;;;;;;;0.00;0.00;;;;;-145.09;100.00;59365.97;6292240;22;11448;-89
2024/03/04 08:04:43;;;;;;;;;0.00;0.00;;;;;-145.09;100.00;59365.97;6290413;22;30839;-88
2024/03/04 08:07:08;;;;;;;;;0.00;0.00;;;;;-145.09;100.00;59365.97;6319668;22;11357;-88
2024/03/04 08:09:34;;;;;;;;;0.00;0.00;;;;;-145.09;100.00;59365.97;6294030;22;13023;-88
2024/03/04 08:11:59;;;;;;;;;0.00;0.00;;;;;-145.09;100.00;59365.97;6320242;22;10654;-89
2024/03/04 08:14:24;;;;;;;;;0.00;0.00;;;;;-145.09;100.00;59365.97;6292020;22;35792;-88
2024/03/04 08:16:50;;;;;;;;;0.00;0.00;;;;;-145.09;100.00;59365.97;6290079;22;9490;-89
2024/03/04 08:19:15;;;;;;;;;0.00;0.00;;;;;-145.09;100.00;59365.97;6318157;22;34743;-88
2024/03/04 08:21:43;;;;;;;;;0.00;0.00;;;;;-145.09;100.00;59365.97;6289511;22;36949;-87
2024/03/04 08:24:09;;;;;;;;;0.00;0.00;;;;;-145.09;100.00;59365.97;6317756;22;10252;-87
2024/03/04 08:26:34;;;;;;;;;0.00;0.00;;;;;-145.09;100.00;59365.97;6263597;22;39480;-87
2024/03/04 08:28:59;;;;;;;;;0.00;0.00;;;;;-145.09;100.00;59365.97;6290550;22;11429;-87
2024/03/04 08:31:25;;;;;;;;;0.00;0.00;;;;;-145.09;100.00;59365.97;6318292;22;10264;-88
2024/03/04 08:33:50;;;;;;;;;0.00;0.00;;;;;-145.09;100.00;59365.97;6319213;22;8890;-87
2024/03/04 08:36:15;;;;;;;;;0.00;0.00;;;;;-145.09;100.00;59365.97;6290771;22;16946;-87
2024/03/04 08:38:41;;;;;;;;;0.00;0.00;;;;;-145.09;100.00;59365.97;6289997;22;17206;-88
2024/03/04 08:41:06;;;;;;;;;0.00;0.00;;;;;-145.09;100.00;59365.97;6317841;22;24530;-87
2024/03/04 08:43:32;;;;;;;;;0.00;0.00;;;;;-145.09;100.00;59365.97;6290576;22;11371;-88
2024/03/04 08:45:57;;;;;;;;;0.00;0.00;;;;;-145.09;100.00;59365.97;6292238;22;8797;-88
2024/03/04 08:48:23;;;;;;;;;0.00;0.00;;;;;-145.09;100.00;59365.97;6319963;22;8784;-88
2024/03/04 08:50:48;;;;;;;;;0.00;0.00;;;;;-145.09;100.00;59365.97;6292558;22;8780;-88
2024/03/04 08:53:14;;;;;;;;;0.00;0.00;;;;;-145.09;100.00;59365.97;6320036;22;8753;-88
2024/03/04 08:55:39;;;;;;;;;0.00;0.00;;;;;-145.09;100.00;59365.97;6292881;22;15348;-88
2024/03/04 08:58:05;;;;;;;;;0.00;0.00;;;;;-145.09;100.00;59365.97;6266330;22;26235;-89
2024/03/04 09:00:30;;;;;;;;;0.00;0.00;;;;;-145.09;100.00;59365.97;6318215;22;11457;-88
2024/03/04 09:02:56;;;;;;;;;0.00;0.00;;;;;-145.09;100.00;59365.97;6320049;22;8741;-88
2024/03/04 09:05:22;;;;;;;;;0.00;0.00;;;;;-145.09;100.00;59365.97;6292274;22;8737;-88
2024/03/04 09:07:49;;;;;;;;;0.00;0.00;;;;;-145.09;100.00;59365.97;6292405;22;8950;-89
2024/03/04 09:10:16;;;;;;;;;0.00;0.00;;;;;-145.09;100.00;59365.97;6292369;22;9892;-89
2024/03/04 09:12:42;;;;;;;;;0.00;0.00;;;;;-145.09;100.00;59365.97;6320611;22;8775;-88
2024/03/04 09:15:12;;;;;;;;;4.00;4.00;;;;;-145.09;100.00;59365.97;6266325;22;16722;-87
2024/03/04 09:17:38;;;;;;;;;0.00;0.00;;;;;-145.09;100.00;59365.97;6320263;22;8748;-88
2024/03/04 09:20:03;;;;;;;;;0.00;0.00;;;;;-145.09;100.00;59365.97;6292448;22;8758;-88
2024/03/04 09:22:29;;;;;;;;;0.00;0.00;;;;;-145.09;100.00;59365.97;6291733;22;8740;-89
2024/03/04 09:24:54;;;;;;;;;0.00;0.00;;;;;-145.09;100.00;59365.97;6266182;22;32915;-88
2024/03/04 09:27:19;;;;;;;;;0.00;0.00;;;;;-145.09;100.00;59365.97;6319595;22;21514;-88
2024/03/04 09:29:46;;;;;;;;;0.00;0.00;;;;;-145.09;100.00;59365.97;6292899;22;10981;-89
2024/03/04 09:32:11;;;;;;;;;0.00;0.00;;;;;-145.09;100.00;59365.97;6320181;22;8749;-88
2024/03/04 09:34:36;;;;;;;;;0.67;0.67;;;;;-145.09;100.00;59365.97;6292333;22;9503;-88
2024/03/04 09:37:03;;;;;;;;;0.00;0.00;;;;;-145.09;100.00;59365.97;6290964;22;34103;-88
2024/03/04 09:39:28;;;;;;;;;0.00;0.00;;;;;-145.09;100.00;59365.97;6293342;22;11466;-88
2024/03/04 09:41:55;;;;;;;;;1.00;1.00;;;;;-145.09;100.00;59365.97;6294461;22;8761;-89
2024/03/04 09:44:21;;;;;;;;;0.00;0.00;;;;;-145.09;100.00;59365.97;6293451;22;9463;-88
2024/03/04 09:46:47;;;;;;;;;0.00;0.00;;;;;-145.09;100.00;59365.97;6293200;22;8755;-89
2024/03/04 09:49:13;;;;;;;;;0.00;0.00;;;;;-145.09;100.00;59365.97;6292579;22;19208;-88
2024/03/04 09:51:39;;;;;;;;;0.00;0.00;;;;;-145.09;100.00;59365.97;6291857;22;30775;-88
2024/03/04 09:54:05;;;;;;;;;0.00;0.00;;;;;-145.09;100.00;59365.97;6290983;22;29543;-87
2024/03/04 09:56:31;;;;;;;;;0.00;0.00;;;;;-145.09;100.00;59365.97;6292409;22;8874;-88
2024/03/04 09:58:56;;;;;;;;;0.00;0.00;;;;;-145.09;100.00;59365.97;6292389;22;23389;-88
2024/03/04 10:01:23;;;;;;;;;0.00;0.00;;;;;-145.09;100.00;59365.97;6293472;22;8756;-89
2024/03/04 10:03:48;;;;;;;;;0.00;0.00;;;;;-145.09;100.00;59365.97;6268049;22;35784;-88
2024/03/04 10:06:13;;;;;;;;;0.00;0.00;;;;;-145.09;100.00;59365.97;6293854;22;22642;-89
2024/03/04 10:08:39;;;;;;;;;0.00;0.00;;;;;-145.09;100.00;59365.97;6322466;22;9584;-88
2024/03/04 10:11:04;;;;;;;;;0.00;0.00;;;;;-145.09;100.00;59365.97;6267282;22;31926;-88
2024/03/04 10:13:30;;;;;;;;;0.00;0.00;;;;;-145.09;100.00;59365.97;6294061;22;8756;-87
2024/03/04 10:15:55;;;;;;;;;0.00;0.00;;;;;-145.09;100.00;59365.97;6291741;22;29250;-89
2024/03/04 10:18:21;;;;;;;;;0.00;0.00;;;;;-145.09;100.00;59365.97;6292056;22;8794;-88
2024/03/04 10:20:46;;;;;;;;;0.00;0.00;;;;;-145.09;100.00;59365.97;6265502;22;30049;-89
2024/03/04 10:23:12;;;;;;;;;0.00;0.00;;;;;-145.09;100.00;59365.97;6319632;22;11388;-89
2024/03/04 10:25:37;;;;;;;;;0.00;0.00;;;;;-145.09;100.00;59365.97;6266442;22;8776;-88
2024/03/04 10:28:05;;;;;;;;;0.00;0.00;;;;;-145.09;100.00;59365.97;6293557;22;8752;-87
2024/03/04 10:30:32;;;;;;;;;0.00;0.00;;;;;-145.09;100.00;59365.97;6292489;22;8825;-88
2024/03/04 10:33:00;;;;;;;;;0.00;0.00;;;;;-145.09;100.00;59365.97;6318083;22;8768;-88
2024/03/04 10:35:26;;;;;;;;;0.00;0.00;;;;;-145.09;100.00;59365.97;6292109;22;8756;-88
2024/03/04 10:37:56;;;;;;;;;0.00;0.00;;;;;-145.09;100.00;59365.97;6319666;22;8752;-88
2024/03/04 10:40:22;;;;;;;;;0.00;0.00;;;;;-145.09;100.00;59365.97;6320112;22;8826;-89
2024/03/04 10:42:48;;;;;;;;;0.00;0.00;;;;;-145.09;100.00;59365.97;6293068;22;8741;-89
2024/03/04 10:45:17;;;;;;;;;0.00;0.00;;;;;-145.09;100.00;59365.97;6320307;22;8879;-89
2024/03/04 10:47:44;;;;;;;;;0.00;0.00;;;;;-145.09;100.00;59365.97;6293391;22;8744;-89
2024/03/04 10:50:14;;;;;;;;;0.00;0.00;;;;;-145.09;100.00;59365.97;6319012;22;9522;-88
2024/03/04 10:52:40;;;;;;;;;0.00;0.00;;;;;-145.09;100.00;59365.97;6293207;22;8755;-89
2024/03/04 10:55:05;;;;;;;;;3.00;3.00;;;;;-145.09;100.00;59365.97;6292418;22;8757;-88
2024/03/04 10:57:33;;;;;;;;;0.00;0.00;;;;;-145.09;100.00;59365.97;6320034;22;8811;-90
2024/03/04 11:00:25;;;;;;;;;0.00;0.00;;;;;-145.09;100.00;59365.97;6292819;22;8748;-88
2024/03/04 11:02:59;;;;;;;;;0.00;0.00;;;;;-145.09;100.00;59365.97;6319195;22;8798;-89
2024/03/04 11:05:27;;;;;;;;;0.00;0.00;;;;;-145.09;100.00;59365.97;6318993;22;8748;-87
2024/03/04 11:07:58;;;;;;;;;0.00;0.00;;;;;-145.09;100.00;59365.97;6291462;22;8737;-88
2024/03/04 11:10:23;;;;;;;;;0.00;0.00;;;;;-145.09;100.00;59365.97;6291672;22;8776;-88
2024/03/04 11:13:04;;;;;;;;;0.00;0.00;;;;;-145.09;100.00;59365.97;6318288;22;8787;-88
2024/03/04 11:15:33;;;;;;;;;0.00;0.00;;;;;-145.09;100.00;59365.97;6319620;22;8757;-89
2024/03/04 11:18:02;;;;;;;;;0.00;0.00;;;;;-145.09;100.00;59365.97;6319486;22;8741;-88
2024/03/04 11:20:29;;;;;;;;;0.00;0.00;;;;;-145.09;100.00;59365.97;6292323;22;8756;-90
2024/03/04 11:22:54;;;;;;;;;0.00;0.00;;;;;-145.09;100.00;59365.97;6292918;22;8775;-88
2024/03/04 11:25:20;;;;;;;;;0.00;0.00;;;;;-145.09;100.00;59365.97;6291316;22;31062;-88
2024/03/04 11:27:46;;;;;;;;;0.00;0.00;;;;;-145.09;100.00;59365.97;6291543;22;11336;-88
2024/03/04 11:30:12;;;;;;;;;0.00;0.00;;;;;-145.09;100.00;59365.97;6291568;22;8802;-88
2024/03/04 11:32:37;;;;;;;;;0.00;0.00;;;;;-145.09;100.00;59365.97;6316588;22;8830;-89
2024/03/04 11:35:10;;;;;;;;;0.00;0.00;;;;;-145.09;100.00;59365.97;6291169;22;27039;-88
2024/03/04 11:38:05;;;;;;;;;0.00;0.00;;;;;-145.09;100.00;59365.97;6318631;22;8737;-89
2024/03/04 11:40:31;;;;;;;;;0.00;0.00;;;;;-145.09;100.00;59365.97;6292864;22;8733;-89
2024/03/04 11:42:56;;;;;;;;;0.00;0.00;;;;;-145.09;100.00;59365.97;6293156;22;8799;-89
2024/03/04 11:45:33;;;;;;;;;0.00;0.00;;;;;-145.09;100.00;59365.97;6266006;22;9980;-90
2024/03/04 11:47:59;;;;;;;;;0.00;0.00;;;;;-145.09;100.00;59365.97;6320368;22;8678;-90
2024/03/04 11:50:37;;;;;;;;;0.00;0.00;;;;;-145.09;100.00;59365.97;6319881;22;8736;-89
2024/03/04 11:53:03;;;;;;;;;0.00;0.00;;;;;-145.09;100.00;59365.97;6319864;22;8745;-90
2024/03/04 11:55:29;;;;;;;;;0.00;0.00;;;;;-145.09;100.00;59365.97;6319461;22;8753;-94
2024/03/04 11:57:55;;;;;;;;;0.00;0.00;;;;;-145.09;100.00;59365.97;6293271;22;8740;-93
2024/03/04 12:00:23;;;;;;;;;0.00;0.00;;;;;-145.09;100.00;59365.97;6293297;22;8772;-93
2024/03/04 12:03:06;;;;;;;;;0.00;0.00;;;;;-145.09;100.00;59365.97;6292933;22;8764;-94
2024/03/04 12:05:34;;;;;;;;;0.00;0.00;;;;;-145.09;100.00;59365.97;6318375;22;8900;-93
2024/03/04 12:07:59;;;;;;;;;0.00;0.00;;;;;-145.09;100.00;59365.97;6292898;22;8825;-92
2024/03/04 12:10:24;;;;;;;;;0.00;0.00;;;;;-145.09;100.00;59365.97;6265592;22;31916;-94
2024/03/04 12:12:50;;;;;;;;;0.00;0.00;;;;;-145.09;100.00;59365.97;6292685;22;8783;-93
2024/03/04 12:15:18;;;;;;;;;0.00;0.00;;;;;-145.09;100.00;59365.97;6293339;22;8842;-93
2024/03/04 12:17:44;;;;;;;;;0.00;0.00;;;;;-145.09;100.00;59365.97;6320228;22;8677;-93
2024/03/04 12:20:10;;;;;;;;;0.00;0.00;;;;;-145.09;100.00;59365.97;6267801;22;8748;-93
2024/03/04 12:22:37;;;;;;;;;0.00;0.00;;;;;-145.09;100.00;59365.97;6334267;22;9743;-91
2024/03/04 12:25:08;;;;;;;;;0.00;0.00;;;;;-145.09;100.00;59365.97;6297052;22;8678;-93
2024/03/04 12:27:35;;;;;;;;;0.00;0.00;;;;;-145.09;100.00;59365.97;6321856;22;8737;-93
2024/03/04 12:30:33;;;;;;;;;0.00;0.00;;;;;-145.09;100.00;59365.97;6294634;22;8737;-91